Terminal Aerodrome Forecast
Issued by NWS

Home | Current Version | Previous Version | Text Only | Print | Product List | Glossary On
Versions: 1 2 3 4 5 6 7 8 9 10 11 12 13 14 15 16
000
FTUS43 KGRR 291140
TAFAZO
TAF
KAZO 291140Z 2912/3012 04008KT 5SM -RA BR BKN009
     FM300200 03007KT 5SM BR OVC004
     FM300600 03008KT 2SM -RA BR OVC007=

USA.gov is the U.S. government's official web portal to all federal, state and local government web resources and services.